sensor_id;sensor_type;location;lat;lon;timestamp;P1;durP1;ratioP1;P2;durP2;ratioP2
8333;SDS011;4204;43.004;23.052;2023-09-19T00:00:27;10.57;;;5.27;;
8333;SDS011;4204;43.004;23.052;2023-09-19T00:02:55;7.37;;;5.10;;
8333;SDS011;4204;43.004;23.052;2023-09-19T00:05:25;5.93;;;4.73;;
8333;SDS011;4204;43.004;23.052;2023-09-19T00:07:54;9.03;;;5.27;;
8333;SDS011;4204;43.004;23.052;2023-09-19T00:10:24;6.97;;;5.13;;
8333;SDS011;4204;43.004;23.052;2023-09-19T00:12:52;6.20;;;5.47;;
8333;SDS011;4204;43.004;23.052;2023-09-19T00:15:37;7.00;;;5.47;;
8333;SDS011;4204;43.004;23.052;2023-09-19T00:18:07;6.57;;;5.50;;
8333;SDS011;4204;43.004;23.052;2023-09-19T00:20:35;5.77;;;5.17;;
8333;SDS011;4204;43.004;23.052;2023-09-19T00:23:04;5.77;;;4.93;;
8333;SDS011;4204;43.004;23.052;2023-09-19T00:25:35;7.30;;;5.30;;
8333;SDS011;4204;43.004;23.052;2023-09-19T00:28:04;6.03;;;5.43;;
8333;SDS011;4204;43.004;23.052;2023-09-19T00:30:33;8.03;;;5.73;;
8333;SDS011;4204;43.004;23.052;2023-09-19T00:33:02;6.17;;;4.87;;
8333;SDS011;4204;43.004;23.052;2023-09-19T00:35:32;7.23;;;5.33;;
8333;SDS011;4204;43.004;23.052;2023-09-19T00:38:00;6.83;;;4.70;;
8333;SDS011;4204;43.004;23.052;2023-09-19T00:40:29;9.60;;;5.60;;
8333;SDS011;4204;43.004;23.052;2023-09-19T00:42:59;6.40;;;5.23;;
8333;SDS011;4204;43.004;23.052;2023-09-19T00:45:27;5.30;;;4.80;;
8333;SDS011;4204;43.004;23.052;2023-09-19T00:47:55;9.10;;;5.30;;
8333;SDS011;4204;43.004;23.052;2023-09-19T00:50:25;6.10;;;5.23;;
8333;SDS011;4204;43.004;23.052;2023-09-19T00:52:55;6.53;;;4.97;;
8333;SDS011;4204;43.004;23.052;2023-09-19T00:55:23;6.00;;;5.30;;
8333;SDS011;4204;43.004;23.052;2023-09-19T00:57:51;7.80;;;5.77;;
8333;SDS011;4204;43.004;23.052;2023-09-19T01:00:20;6.53;;;5.57;;
8333;SDS011;4204;43.004;23.052;2023-09-19T01:02:49;5.53;;;5.03;;
8333;SDS011;4204;43.004;23.052;2023-09-19T01:05:16;5.47;;;4.93;;
8333;SDS011;4204;43.004;23.052;2023-09-19T01:07:46;5.80;;;5.27;;
8333;SDS011;4204;43.004;23.052;2023-09-19T01:10:16;6.43;;;5.03;;
8333;SDS011;4204;43.004;23.052;2023-09-19T01:12:52;5.90;;;5.30;;
8333;SDS011;4204;43.004;23.052;2023-09-19T01:15:31;6.57;;;5.43;;
8333;SDS011;4204;43.004;23.052;2023-09-19T01:18:11;7.30;;;5.40;;
8333;SDS011;4204;43.004;23.052;2023-09-19T01:20:52;7.23;;;5.63;;
8333;SDS011;4204;43.004;23.052;2023-09-19T01:23:34;6.07;;;5.50;;
8333;SDS011;4204;43.004;23.052;2023-09-19T01:26:18;7.77;;;6.20;;
8333;SDS011;4204;43.004;23.052;2023-09-19T01:29:13;9.77;;;5.80;;
8333;SDS011;4204;43.004;23.052;2023-09-19T01:31:57;7.07;;;5.80;;
8333;SDS011;4204;43.004;23.052;2023-09-19T01:34:42;6.00;;;5.40;;
8333;SDS011;4204;43.004;23.052;2023-09-19T01:37:12;6.37;;;5.33;;
8333;SDS011;4204;43.004;23.052;2023-09-19T01:39:40;5.93;;;5.33;;
8333;SDS011;4204;43.004;23.052;2023-09-19T01:42:09;6.07;;;5.23;;
8333;SDS011;4204;43.004;23.052;2023-09-19T01:44:49;6.17;;;5.50;;
8333;SDS011;4204;43.004;23.052;2023-09-19T01:47:31;6.50;;;5.90;;
8333;SDS011;4204;43.004;23.052;2023-09-19T01:50:07;6.00;;;5.20;;
8333;SDS011;4204;43.004;23.052;2023-09-19T01:52:47;7.67;;;5.63;;
8333;SDS011;4204;43.004;23.052;2023-09-19T01:55:21;7.17;;;5.93;;
8333;SDS011;4204;43.004;23.052;2023-09-19T01:57:52;7.67;;;5.90;;
8333;SDS011;4204;43.004;23.052;2023-09-19T02:00:26;7.50;;;5.63;;
8333;SDS011;4204;43.004;23.052;2023-09-19T02:02:58;6.93;;;5.83;;
8333;SDS011;4204;43.004;23.052;2023-09-19T02:05:27;9.63;;;5.63;;
8333;SDS011;4204;43.004;23.052;2023-09-19T02:07:54;6.27;;;5.67;;
8333;SDS011;4204;43.004;23.052;2023-09-19T02:10:24;5.80;;;5.20;;
8333;SDS011;4204;43.004;23.052;2023-09-19T02:12:52;6.63;;;5.93;;
8333;SDS011;4204;43.004;23.052;2023-09-19T02:15:20;7.17;;;5.93;;
8333;SDS011;4204;43.004;23.052;2023-09-19T02:17:48;5.97;;;5.37;;
8333;SDS011;4204;43.004;23.052;2023-09-19T02:20:17;6.57;;;5.70;;
8333;SDS011;4204;43.004;23.052;2023-09-19T02:22:46;7.57;;;6.23;;
8333;SDS011;4204;43.004;23.052;2023-09-19T02:25:16;7.87;;;5.70;;
8333;SDS011;4204;43.004;23.052;2023-09-19T02:27:45;6.67;;;6.07;;
8333;SDS011;4204;43.004;23.052;2023-09-19T02:30:32;7.70;;;5.90;;
8333;SDS011;4204;43.004;23.052;2023-09-19T02:33:00;6.73;;;5.40;;
8333;SDS011;4204;43.004;23.052;2023-09-19T02:35:30;8.27;;;5.90;;
8333;SDS011;4204;43.004;23.052;2023-09-19T02:38:01;7.33;;;5.80;;
8333;SDS011;4204;43.004;23.052;2023-09-19T02:40:32;9.60;;;5.73;;
8333;SDS011;4204;43.004;23.052;2023-09-19T02:43:01;7.17;;;5.77;;
8333;SDS011;4204;43.004;23.052;2023-09-19T02:45:30;7.27;;;5.87;;
8333;SDS011;4204;43.004;23.052;2023-09-19T02:47:59;10.07;;;6.17;;
8333;SDS011;4204;43.004;23.052;2023-09-19T02:50:30;9.70;;;5.60;;
8333;SDS011;4204;43.004;23.052;2023-09-19T02:52:57;6.90;;;6.20;;
8333;SDS011;4204;43.004;23.052;2023-09-19T02:55:25;8.67;;;5.73;;
8333;SDS011;4204;43.004;23.052;2023-09-19T02:57:54;6.77;;;5.83;;
8333;SDS011;4204;43.004;23.052;2023-09-19T03:00:22;7.53;;;5.73;;
8333;SDS011;4204;43.004;23.052;2023-09-19T03:02:52;6.63;;;5.43;;
8333;SDS011;4204;43.004;23.052;2023-09-19T03:05:21;6.67;;;5.43;;
8333;SDS011;4204;43.004;23.052;2023-09-19T03:07:53;6.63;;;5.63;;
8333;SDS011;4204;43.004;23.052;2023-09-19T03:10:21;9.67;;;6.40;;
8333;SDS011;4204;43.004;23.052;2023-09-19T03:12:51;7.90;;;6.30;;
8333;SDS011;4204;43.004;23.052;2023-09-19T03:15:19;8.73;;;5.90;;
8333;SDS011;4204;43.004;23.052;2023-09-19T03:17:49;7.30;;;5.80;;
8333;SDS011;4204;43.004;23.052;2023-09-19T03:20:22;6.47;;;5.33;;
8333;SDS011;4204;43.004;23.052;2023-09-19T03:22:55;8.77;;;6.10;;
8333;SDS011;4204;43.004;23.052;2023-09-19T03:25:23;10.00;;;6.07;;
8333;SDS011;4204;43.004;23.052;2023-09-19T03:27:52;8.30;;;5.60;;
8333;SDS011;4204;43.004;23.052;2023-09-19T03:30:21;6.67;;;5.80;;
8333;SDS011;4204;43.004;23.052;2023-09-19T03:32:49;6.40;;;5.70;;
8333;SDS011;4204;43.004;23.052;2023-09-19T03:35:17;5.77;;;5.27;;
8333;SDS011;4204;43.004;23.052;2023-09-19T03:37:46;7.50;;;6.50;;
8333;SDS011;4204;43.004;23.052;2023-09-19T03:40:16;8.63;;;5.60;;
8333;SDS011;4204;43.004;23.052;2023-09-19T03:42:46;10.73;;;5.87;;
8333;SDS011;4204;43.004;23.052;2023-09-19T03:45:14;6.83;;;5.77;;
8333;SDS011;4204;43.004;23.052;2023-09-19T03:47:48;6.13;;;5.53;;
8333;SDS011;4204;43.004;23.052;2023-09-19T03:50:18;8.13;;;5.57;;
8333;SDS011;4204;43.004;23.052;2023-09-19T03:52:46;7.77;;;5.60;;
8333;SDS011;4204;43.004;23.052;2023-09-19T03:55:14;8.40;;;5.77;;
8333;SDS011;4204;43.004;23.052;2023-09-19T03:57:46;6.77;;;5.53;;
8333;SDS011;4204;43.004;23.052;2023-09-19T04:00:35;6.83;;;5.50;;
8333;SDS011;4204;43.004;23.052;2023-09-19T04:03:04;7.23;;;6.10;;
8333;SDS011;4204;43.004;23.052;2023-09-19T04:05:33;8.23;;;5.77;;
8333;SDS011;4204;43.004;23.052;2023-09-19T04:08:01;6.27;;;5.67;;
8333;SDS011;4204;43.004;23.052;2023-09-19T04:10:30;6.90;;;5.40;;
8333;SDS011;4204;43.004;23.052;2023-09-19T04:12:58;10.50;;;6.10;;
8333;SDS011;4204;43.004;23.052;2023-09-19T04:15:26;7.97;;;5.90;;
8333;SDS011;4204;43.004;23.052;2023-09-19T04:17:54;8.03;;;5.87;;
8333;SDS011;4204;43.004;23.052;2023-09-19T04:20:22;9.13;;;6.10;;
8333;SDS011;4204;43.004;23.052;2023-09-19T04:22:50;8.23;;;6.37;;
8333;SDS011;4204;43.004;23.052;2023-09-19T04:25:17;7.93;;;6.00;;
8333;SDS011;4204;43.004;23.052;2023-09-19T04:27:47;11.77;;;7.27;;
8333;SDS011;4204;43.004;23.052;2023-09-19T04:30:16;10.30;;;8.00;;
8333;SDS011;4204;43.004;23.052;2023-09-19T04:32:43;8.00;;;7.20;;
8333;SDS011;4204;43.004;23.052;2023-09-19T04:35:16;8.10;;;7.07;;
8333;SDS011;4204;43.004;23.052;2023-09-19T04:37:44;9.80;;;6.80;;
8333;SDS011;4204;43.004;23.052;2023-09-19T04:40:12;8.23;;;6.97;;
8333;SDS011;4204;43.004;23.052;2023-09-19T04:42:43;9.00;;;6.63;;
8333;SDS011;4204;43.004;23.052;2023-09-19T04:45:13;8.73;;;7.00;;
8333;SDS011;4204;43.004;23.052;2023-09-19T04:47:41;8.27;;;6.30;;
8333;SDS011;4204;43.004;23.052;2023-09-19T04:50:12;9.13;;;7.17;;
8333;SDS011;4204;43.004;23.052;2023-09-19T04:52:40;9.07;;;7.50;;
8333;SDS011;4204;43.004;23.052;2023-09-19T04:55:29;7.20;;;6.50;;
8333;SDS011;4204;43.004;23.052;2023-09-19T04:57:58;7.27;;;6.57;;
8333;SDS011;4204;43.004;23.052;2023-09-19T05:00:28;9.50;;;6.93;;
8333;SDS011;4204;43.004;23.052;2023-09-19T05:02:57;7.40;;;6.40;;
8333;SDS011;4204;43.004;23.052;2023-09-19T05:05:24;9.03;;;6.97;;
8333;SDS011;4204;43.004;23.052;2023-09-19T05:07:52;7.13;;;6.30;;
8333;SDS011;4204;43.004;23.052;2023-09-19T05:10:21;7.87;;;6.97;;
8333;SDS011;4204;43.004;23.052;2023-09-19T05:12:49;7.70;;;6.83;;
8333;SDS011;4204;43.004;23.052;2023-09-19T05:15:20;8.80;;;7.43;;
8333;SDS011;4204;43.004;23.052;2023-09-19T05:17:49;9.40;;;6.90;;
8333;SDS011;4204;43.004;23.052;2023-09-19T05:20:17;7.87;;;7.07;;
8333;SDS011;4204;43.004;23.052;2023-09-19T05:22:57;9.60;;;7.03;;
8333;SDS011;4204;43.004;23.052;2023-09-19T05:25:27;8.20;;;7.17;;
8333;SDS011;4204;43.004;23.052;2023-09-19T05:27:56;9.07;;;7.57;;
8333;SDS011;4204;43.004;23.052;2023-09-19T05:30:25;8.07;;;7.23;;
8333;SDS011;4204;43.004;23.052;2023-09-19T05:32:56;7.97;;;7.03;;
8333;SDS011;4204;43.004;23.052;2023-09-19T05:35:24;9.60;;;7.30;;
8333;SDS011;4204;43.004;23.052;2023-09-19T05:37:53;11.07;;;7.73;;
8333;SDS011;4204;43.004;23.052;2023-09-19T05:40:22;6.70;;;6.10;;
8333;SDS011;4204;43.004;23.052;2023-09-19T05:42:50;8.97;;;6.57;;
8333;SDS011;4204;43.004;23.052;2023-09-19T05:45:18;6.07;;;5.47;;
8333;SDS011;4204;43.004;23.052;2023-09-19T05:47:49;6.73;;;5.30;;
8333;SDS011;4204;43.004;23.052;2023-09-19T05:50:18;9.63;;;5.87;;
8333;SDS011;4204;43.004;23.052;2023-09-19T05:52:51;6.50;;;5.77;;
8333;SDS011;4204;43.004;23.052;2023-09-19T05:55:19;7.13;;;5.17;;
8333;SDS011;4204;43.004;23.052;2023-09-19T05:57:49;5.80;;;5.20;;
8333;SDS011;4204;43.004;23.052;2023-09-19T06:00:18;5.47;;;4.97;;
8333;SDS011;4204;43.004;23.052;2023-09-19T06:02:49;5.77;;;4.67;;
8333;SDS011;4204;43.004;23.052;2023-09-19T06:05:19;6.00;;;4.90;;
8333;SDS011;4204;43.004;23.052;2023-09-19T06:07:49;6.40;;;4.83;;
8333;SDS011;4204;43.004;23.052;2023-09-19T06:10:16;5.47;;;4.93;;
8333;SDS011;4204;43.004;23.052;2023-09-19T06:12:46;5.77;;;4.70;;
8333;SDS011;4204;43.004;23.052;2023-09-19T06:15:14;5.50;;;4.70;;
8333;SDS011;4204;43.004;23.052;2023-09-19T06:17:46;6.77;;;5.37;;
8333;SDS011;4204;43.004;23.052;2023-09-19T06:20:14;6.30;;;4.63;;
8333;SDS011;4204;43.004;23.052;2023-09-19T06:22:44;6.07;;;4.67;;
8333;SDS011;4204;43.004;23.052;2023-09-19T06:25:13;6.00;;;5.40;;
8333;SDS011;4204;43.004;23.052;2023-09-19T06:27:45;6.47;;;4.80;;
8333;SDS011;4204;43.004;23.052;2023-09-19T06:30:13;6.93;;;4.63;;
8333;SDS011;4204;43.004;23.052;2023-09-19T06:32:41;5.63;;;5.00;;
8333;SDS011;4204;43.004;23.052;2023-09-19T06:35:09;6.30;;;4.33;;
8333;SDS011;4204;43.004;23.052;2023-09-19T06:37:38;5.40;;;4.70;;
8333;SDS011;4204;43.004;23.052;2023-09-19T06:40:09;5.70;;;4.50;;
8333;SDS011;4204;43.004;23.052;2023-09-19T06:42:40;5.30;;;4.80;;
8333;SDS011;4204;43.004;23.052;2023-09-19T06:45:08;6.87;;;4.57;;
8333;SDS011;4204;43.004;23.052;2023-09-19T06:47:37;7.80;;;4.97;;
8333;SDS011;4204;43.004;23.052;2023-09-19T06:50:05;6.50;;;5.10;;
8333;SDS011;4204;43.004;23.052;2023-09-19T06:52:39;6.37;;;4.83;;
8333;SDS011;4204;43.004;23.052;2023-09-19T06:55:08;6.70;;;4.70;;
8333;SDS011;4204;43.004;23.052;2023-09-19T06:57:39;5.40;;;4.47;;
8333;SDS011;4204;43.004;23.052;2023-09-19T07:00:09;5.63;;;4.83;;
8333;SDS011;4204;43.004;23.052;2023-09-19T07:02:55;6.70;;;4.23;;
8333;SDS011;4204;43.004;23.052;2023-09-19T07:05:24;4.97;;;4.47;;
8333;SDS011;4204;43.004;23.052;2023-09-19T07:07:53;5.10;;;4.33;;
8333;SDS011;4204;43.004;23.052;2023-09-19T07:10:23;5.47;;;4.87;;
8333;SDS011;4204;43.004;23.052;2023-09-19T07:12:55;5.10;;;4.60;;
8333;SDS011;4204;43.004;23.052;2023-09-19T07:15:24;6.40;;;4.97;;
8333;SDS011;4204;43.004;23.052;2023-09-19T07:17:52;5.70;;;5.00;;
8333;SDS011;4204;43.004;23.052;2023-09-19T07:20:20;6.23;;;4.53;;
8333;SDS011;4204;43.004;23.052;2023-09-19T07:22:48;5.23;;;4.73;;
8333;SDS011;4204;43.004;23.052;2023-09-19T07:25:17;5.20;;;4.70;;
8333;SDS011;4204;43.004;23.052;2023-09-19T07:30:49;5.43;;;4.80;;
8333;SDS011;4204;43.004;23.052;2023-09-19T07:33:19;6.77;;;4.97;;
8333;SDS011;4204;43.004;23.052;2023-09-19T07:35:47;7.10;;;4.57;;
8333;SDS011;4204;43.004;23.052;2023-09-19T07:38:17;6.87;;;4.73;;
8333;SDS011;4204;43.004;23.052;2023-09-19T07:40:47;5.33;;;4.67;;
8333;SDS011;4204;43.004;23.052;2023-09-19T07:46:13;9.30;;;5.20;;
8333;SDS011;4204;43.004;23.052;2023-09-19T07:48:41;5.03;;;4.53;;
8333;SDS011;4204;43.004;23.052;2023-09-19T07:51:13;5.60;;;4.33;;
8333;SDS011;4204;43.004;23.052;2023-09-19T07:53:42;6.23;;;4.43;;
8333;SDS011;4204;43.004;23.052;2023-09-19T07:56:10;7.47;;;4.70;;
8333;SDS011;4204;43.004;23.052;2023-09-19T07:58:39;6.13;;;4.40;;
8333;SDS011;4204;43.004;23.052;2023-09-19T08:01:11;6.70;;;4.90;;
8333;SDS011;4204;43.004;23.052;2023-09-19T08:03:39;4.83;;;4.17;;
8333;SDS011;4204;43.004;23.052;2023-09-19T08:06:09;6.87;;;4.47;;
8333;SDS011;4204;43.004;23.052;2023-09-19T08:08:37;5.27;;;4.60;;
8333;SDS011;4204;43.004;23.052;2023-09-19T08:11:05;8.13;;;4.10;;
8333;SDS011;4204;43.004;23.052;2023-09-19T08:13:37;4.60;;;4.20;;
8333;SDS011;4204;43.004;23.052;2023-09-19T08:16:07;6.47;;;4.70;;
8333;SDS011;4204;43.004;23.052;2023-09-19T08:18:36;7.43;;;4.83;;
8333;SDS011;4204;43.004;23.052;2023-09-19T08:21:06;5.00;;;4.47;;
8333;SDS011;4204;43.004;23.052;2023-09-19T08:23:36;7.77;;;4.70;;
8333;SDS011;4204;43.004;23.052;2023-09-19T08:26:04;5.77;;;5.17;;
8333;SDS011;4204;43.004;23.052;2023-09-19T08:28:33;5.73;;;4.80;;
8333;SDS011;4204;43.004;23.052;2023-09-19T08:31:02;6.00;;;4.70;;
8333;SDS011;4204;43.004;23.052;2023-09-19T08:33:32;5.30;;;4.80;;
8333;SDS011;4204;43.004;23.052;2023-09-19T08:36:01;6.47;;;4.40;;
8333;SDS011;4204;43.004;23.052;2023-09-19T08:38:30;5.20;;;4.67;;
8333;SDS011;4204;43.004;23.052;2023-09-19T08:40:59;6.77;;;4.83;;
8333;SDS011;4204;43.004;23.052;2023-09-19T08:43:27;7.47;;;5.07;;
8333;SDS011;4204;43.004;23.052;2023-09-19T08:45:57;7.27;;;4.60;;
8333;SDS011;4204;43.004;23.052;2023-09-19T08:48:31;5.70;;;4.70;;
8333;SDS011;4204;43.004;23.052;2023-09-19T08:51:00;8.83;;;4.83;;
8333;SDS011;4204;43.004;23.052;2023-09-19T08:53:35;5.07;;;4.57;;
8333;SDS011;4204;43.004;23.052;2023-09-19T08:56:10;6.67;;;4.93;;
8333;SDS011;4204;43.004;23.052;2023-09-19T08:58:41;5.03;;;4.50;;
8333;SDS011;4204;43.004;23.052;2023-09-19T09:01:15;5.20;;;4.67;;
8333;SDS011;4204;43.004;23.052;2023-09-19T09:03:43;5.40;;;4.70;;
8333;SDS011;4204;43.004;23.052;2023-09-19T09:06:15;5.90;;;4.53;;
8333;SDS011;4204;43.004;23.052;2023-09-19T09:08:44;5.07;;;4.57;;
8333;SDS011;4204;43.004;23.052;2023-09-19T09:11:13;5.70;;;4.63;;
8333;SDS011;4204;43.004;23.052;2023-09-19T09:13:43;5.00;;;4.40;;
8333;SDS011;4204;43.004;23.052;2023-09-19T09:16:11;4.90;;;4.30;;
8333;SDS011;4204;43.004;23.052;2023-09-19T09:18:39;6.77;;;4.87;;
8333;SDS011;4204;43.004;23.052;2023-09-19T09:21:10;12.17;;;4.93;;
8333;SDS011;4204;43.004;23.052;2023-09-19T09:23:39;6.93;;;4.63;;
8333;SDS011;4204;43.004;23.052;2023-09-19T09:26:07;6.07;;;4.90;;
8333;SDS011;4204;43.004;23.052;2023-09-19T09:28:35;6.57;;;5.40;;
8333;SDS011;4204;43.004;23.052;2023-09-19T09:31:16;6.93;;;5.40;;
8333;SDS011;4204;43.004;23.052;2023-09-19T09:33:52;8.43;;;5.30;;
8333;SDS011;4204;43.004;23.052;2023-09-19T09:36:33;5.87;;;5.23;;
8333;SDS011;4204;43.004;23.052;2023-09-19T09:39:04;6.70;;;4.90;;
8333;SDS011;4204;43.004;23.052;2023-09-19T09:41:44;5.27;;;4.77;;
8333;SDS011;4204;43.004;23.052;2023-09-19T09:44:12;6.97;;;4.80;;
8333;SDS011;4204;43.004;23.052;2023-09-19T09:46:45;5.93;;;4.70;;
8333;SDS011;4204;43.004;23.052;2023-09-19T09:49:27;5.70;;;5.10;;
8333;SDS011;4204;43.004;23.052;2023-09-19T09:52:00;6.13;;;4.77;;
8333;SDS011;4204;43.004;23.052;2023-09-19T09:54:34;6.60;;;5.23;;
8333;SDS011;4204;43.004;23.052;2023-09-19T09:57:04;6.17;;;5.03;;
8333;SDS011;4204;43.004;23.052;2023-09-19T09:59:47;7.70;;;5.07;;
8333;SDS011;4204;43.004;23.052;2023-09-19T10:02:17;6.90;;;5.33;;
8333;SDS011;4204;43.004;23.052;2023-09-19T10:04:50;7.17;;;5.00;;
8333;SDS011;4204;43.004;23.052;2023-09-19T10:07:25;7.37;;;5.00;;
8333;SDS011;4204;43.004;23.052;2023-09-19T10:10:04;7.47;;;5.30;;
8333;SDS011;4204;43.004;23.052;2023-09-19T10:12:43;7.13;;;5.37;;
8333;SDS011;4204;43.004;23.052;2023-09-19T10:15:16;6.53;;;5.47;;
8333;SDS011;4204;43.004;23.052;2023-09-19T10:17:46;7.97;;;5.97;;
8333;SDS011;4204;43.004;23.052;2023-09-19T10:20:16;6.63;;;5.97;;
8333;SDS011;4204;43.004;23.052;2023-09-19T10:23:10;5.97;;;5.40;;
8333;SDS011;4204;43.004;23.052;2023-09-19T10:25:40;10.17;;;6.33;;
8333;SDS011;4204;43.004;23.052;2023-09-19T10:28:09;7.13;;;6.43;;
8333;SDS011;4204;43.004;23.052;2023-09-19T10:30:41;7.83;;;6.73;;
8333;SDS011;4204;43.004;23.052;2023-09-19T10:33:11;6.90;;;6.20;;
8333;SDS011;4204;43.004;23.052;2023-09-19T10:35:41;8.93;;;6.50;;
8333;SDS011;4204;43.004;23.052;2023-09-19T10:38:11;7.10;;;6.40;;
8333;SDS011;4204;43.004;23.052;2023-09-19T10:40:41;8.80;;;6.10;;
8333;SDS011;4204;43.004;23.052;2023-09-19T10:43:12;8.13;;;7.33;;
8333;SDS011;4204;43.004;23.052;2023-09-19T10:45:45;8.50;;;7.53;;
8333;SDS011;4204;43.004;23.052;2023-09-19T10:48:15;7.80;;;7.00;;
8333;SDS011;4204;43.004;23.052;2023-09-19T10:50:46;6.97;;;6.37;;
8333;SDS011;4204;43.004;23.052;2023-09-19T10:53:18;7.53;;;6.83;;
8333;SDS011;4204;43.004;23.052;2023-09-19T10:55:50;7.80;;;6.50;;
8333;SDS011;4204;43.004;23.052;2023-09-19T10:58:25;7.40;;;6.67;;
8333;SDS011;4204;43.004;23.052;2023-09-19T11:00:55;9.37;;;7.10;;
8333;SDS011;4204;43.004;23.052;2023-09-19T11:03:28;10.37;;;7.83;;
8333;SDS011;4204;43.004;23.052;2023-09-19T11:06:04;8.43;;;7.60;;
8333;SDS011;4204;43.004;23.052;2023-09-19T11:08:51;9.57;;;7.40;;
8333;SDS011;4204;43.004;23.052;2023-09-19T11:11:52;8.40;;;7.60;;
8333;SDS011;4204;43.004;23.052;2023-09-19T11:14:38;8.83;;;7.30;;
8333;SDS011;4204;43.004;23.052;2023-09-19T11:25:53;7.90;;;6.90;;
8333;SDS011;4204;43.004;23.052;2023-09-19T11:28:28;9.43;;;7.77;;
8333;SDS011;4204;43.004;23.052;2023-09-19T11:30:57;7.87;;;7.13;;
8333;SDS011;4204;43.004;23.052;2023-09-19T11:33:25;9.10;;;7.70;;
8333;SDS011;4204;43.004;23.052;2023-09-19T11:36:02;8.53;;;7.70;;
8333;SDS011;4204;43.004;23.052;2023-09-19T11:41:41;10.50;;;7.83;;
8333;SDS011;4204;43.004;23.052;2023-09-19T11:47:10;8.00;;;7.20;;
8333;SDS011;4204;43.004;23.052;2023-09-19T11:49:39;8.57;;;7.77;;
8333;SDS011;4204;43.004;23.052;2023-09-19T11:52:07;8.30;;;7.43;;
8333;SDS011;4204;43.004;23.052;2023-09-19T11:54:35;8.63;;;7.77;;
8333;SDS011;4204;43.004;23.052;2023-09-19T11:57:07;9.37;;;8.43;;
8333;SDS011;4204;43.004;23.052;2023-09-19T11:59:38;8.77;;;7.87;;
8333;SDS011;4204;43.004;23.052;2023-09-19T12:02:07;9.70;;;7.60;;
8333;SDS011;4204;43.004;23.052;2023-09-19T12:04:39;8.43;;;7.60;;
8333;SDS011;4204;43.004;23.052;2023-09-19T12:07:10;8.17;;;7.40;;
8333;SDS011;4204;43.004;23.052;2023-09-19T12:09:41;10.17;;;7.80;;
8333;SDS011;4204;43.004;23.052;2023-09-19T12:12:10;8.67;;;7.57;;
8333;SDS011;4204;43.004;23.052;2023-09-19T12:14:43;8.67;;;7.87;;
8333;SDS011;4204;43.004;23.052;2023-09-19T12:17:16;7.67;;;6.97;;
8333;SDS011;4204;43.004;23.052;2023-09-19T12:19:51;10.20;;;7.37;;
8333;SDS011;4204;43.004;23.052;2023-09-19T12:22:20;8.17;;;7.20;;
8333;SDS011;4204;43.004;23.052;2023-09-19T12:24:47;8.50;;;7.57;;
8333;SDS011;4204;43.004;23.052;2023-09-19T12:27:16;9.13;;;7.30;;
8333;SDS011;4204;43.004;23.052;2023-09-19T12:29:45;9.13;;;7.43;;
8333;SDS011;4204;43.004;23.052;2023-09-19T12:32:16;12.57;;;7.60;;
8333;SDS011;4204;43.004;23.052;2023-09-19T12:34:50;9.90;;;8.27;;
8333;SDS011;4204;43.004;23.052;2023-09-19T12:37:20;8.83;;;8.00;;
8333;SDS011;4204;43.004;23.052;2023-09-19T12:39:48;8.27;;;7.57;;
8333;SDS011;4204;43.004;23.052;2023-09-19T12:42:20;9.00;;;7.20;;
8333;SDS011;4204;43.004;23.052;2023-09-19T12:44:50;9.10;;;7.47;;
8333;SDS011;4204;43.004;23.052;2023-09-19T12:47:22;8.27;;;7.47;;
8333;SDS011;4204;43.004;23.052;2023-09-19T12:50:07;7.97;;;7.23;;
8333;SDS011;4204;43.004;23.052;2023-09-19T12:52:39;10.13;;;7.53;;
8333;SDS011;4204;43.004;23.052;2023-09-19T12:55:19;7.90;;;7.10;;
8333;SDS011;4204;43.004;23.052;2023-09-19T12:57:58;10.60;;;7.20;;
8333;SDS011;4204;43.004;23.052;2023-09-19T13:00:33;8.53;;;7.13;;
8333;SDS011;4204;43.004;23.052;2023-09-19T13:03:13;7.23;;;6.53;;
8333;SDS011;4204;43.004;23.052;2023-09-19T13:05:48;8.50;;;7.13;;
8333;SDS011;4204;43.004;23.052;2023-09-19T13:08:18;8.27;;;7.30;;
8333;SDS011;4204;43.004;23.052;2023-09-19T13:13:39;8.30;;;7.13;;
8333;SDS011;4204;43.004;23.052;2023-09-19T13:16:07;8.07;;;7.27;;
8333;SDS011;4204;43.004;23.052;2023-09-19T13:18:44;10.83;;;7.27;;
8333;SDS011;4204;43.004;23.052;2023-09-19T13:21:13;9.80;;;7.20;;
8333;SDS011;4204;43.004;23.052;2023-09-19T13:26:46;8.00;;;7.23;;
8333;SDS011;4204;43.004;23.052;2023-09-19T13:29:14;8.37;;;7.47;;
8333;SDS011;4204;43.004;23.052;2023-09-19T13:31:45;8.07;;;7.27;;
8333;SDS011;4204;43.004;23.052;2023-09-19T13:34:15;8.13;;;7.07;;
8333;SDS011;4204;43.004;23.052;2023-09-19T13:36:43;8.10;;;7.30;;
8333;SDS011;4204;43.004;23.052;2023-09-19T13:39:11;7.70;;;7.00;;
8333;SDS011;4204;43.004;23.052;2023-09-19T13:41:40;7.90;;;7.10;;
8333;SDS011;4204;43.004;23.052;2023-09-19T13:44:08;7.23;;;6.53;;
8333;SDS011;4204;43.004;23.052;2023-09-19T13:46:37;8.57;;;7.30;;
8333;SDS011;4204;43.004;23.052;2023-09-19T13:49:06;10.47;;;7.30;;
8333;SDS011;4204;43.004;23.052;2023-09-19T13:51:37;8.43;;;7.60;;
8333;SDS011;4204;43.004;23.052;2023-09-19T13:54:05;9.67;;;8.00;;
8333;SDS011;4204;43.004;23.052;2023-09-19T13:56:32;8.33;;;7.03;;
8333;SDS011;4204;43.004;23.052;2023-09-19T13:59:00;7.80;;;7.10;;
8333;SDS011;4204;43.004;23.052;2023-09-19T14:01:28;8.47;;;7.17;;
8333;SDS011;4204;43.004;23.052;2023-09-19T14:03:56;8.60;;;6.90;;
8333;SDS011;4204;43.004;23.052;2023-09-19T14:06:24;7.93;;;7.13;;
8333;SDS011;4204;43.004;23.052;2023-09-19T14:08:53;10.63;;;6.90;;
8333;SDS011;4204;43.004;23.052;2023-09-19T14:11:21;8.10;;;7.30;;
8333;SDS011;4204;43.004;23.052;2023-09-19T14:13:49;8.00;;;7.03;;
8333;SDS011;4204;43.004;23.052;2023-09-19T14:16:18;8.10;;;7.30;;
8333;SDS011;4204;43.004;23.052;2023-09-19T14:18:48;7.70;;;6.90;;
8333;SDS011;4204;43.004;23.052;2023-09-19T14:21:16;9.40;;;7.03;;
8333;SDS011;4204;43.004;23.052;2023-09-19T14:23:45;7.67;;;6.97;;
8333;SDS011;4204;43.004;23.052;2023-09-19T14:26:14;8.03;;;7.13;;
8333;SDS011;4204;43.004;23.052;2023-09-19T14:28:42;8.20;;;7.30;;
8333;SDS011;4204;43.004;23.052;2023-09-19T14:31:11;7.33;;;6.60;;
8333;SDS011;4204;43.004;23.052;2023-09-19T14:33:39;7.77;;;7.07;;
8333;SDS011;4204;43.004;23.052;2023-09-19T14:36:08;7.97;;;7.17;;
8333;SDS011;4204;43.004;23.052;2023-09-19T14:38:37;9.40;;;7.70;;
8333;SDS011;4204;43.004;23.052;2023-09-19T14:41:05;8.20;;;7.40;;
8333;SDS011;4204;43.004;23.052;2023-09-19T14:43:35;7.87;;;7.10;;
8333;SDS011;4204;43.004;23.052;2023-09-19T14:46:03;9.10;;;8.20;;
8333;SDS011;4204;43.004;23.052;2023-09-19T14:48:31;8.13;;;7.43;;
8333;SDS011;4204;43.004;23.052;2023-09-19T14:51:01;9.10;;;7.00;;
8333;SDS011;4204;43.004;23.052;2023-09-19T14:53:30;10.63;;;9.53;;
8333;SDS011;4204;43.004;23.052;2023-09-19T14:55:59;10.87;;;8.13;;
8333;SDS011;4204;43.004;23.052;2023-09-19T14:58:29;9.87;;;8.07;;
8333;SDS011;4204;43.004;23.052;2023-09-19T15:01:03;8.27;;;7.47;;
8333;SDS011;4204;43.004;23.052;2023-09-19T15:03:32;8.17;;;7.37;;
8333;SDS011;4204;43.004;23.052;2023-09-19T15:06:01;8.90;;;7.77;;
8333;SDS011;4204;43.004;23.052;2023-09-19T15:08:30;9.17;;;7.73;;
8333;SDS011;4204;43.004;23.052;2023-09-19T15:11:00;8.33;;;7.30;;
8333;SDS011;4204;43.004;23.052;2023-09-19T15:13:29;8.13;;;7.33;;
8333;SDS011;4204;43.004;23.052;2023-09-19T15:16:00;7.33;;;6.60;;
8333;SDS011;4204;43.004;23.052;2023-09-19T15:18:30;8.27;;;7.27;;
8333;SDS011;4204;43.004;23.052;2023-09-19T15:21:00;8.23;;;6.90;;
8333;SDS011;4204;43.004;23.052;2023-09-19T15:23:28;9.00;;;7.30;;
8333;SDS011;4204;43.004;23.052;2023-09-19T15:25:57;8.00;;;7.30;;
8333;SDS011;4204;43.004;23.052;2023-09-19T15:28:25;8.03;;;7.17;;
8333;SDS011;4204;43.004;23.052;2023-09-19T15:30:57;10.20;;;8.33;;
8333;SDS011;4204;43.004;23.052;2023-09-19T15:33:26;8.33;;;7.20;;
8333;SDS011;4204;43.004;23.052;2023-09-19T15:36:00;9.00;;;8.10;;
8333;SDS011;4204;43.004;23.052;2023-09-19T15:38:29;8.27;;;7.30;;
8333;SDS011;4204;43.004;23.052;2023-09-19T15:40:58;8.67;;;7.67;;
8333;SDS011;4204;43.004;23.052;2023-09-19T15:43:26;8.97;;;8.07;;
8333;SDS011;4204;43.004;23.052;2023-09-19T15:45:54;8.30;;;7.43;;
8333;SDS011;4204;43.004;23.052;2023-09-19T15:48:21;8.83;;;6.93;;